sensor_id;sensor_type;location;lat;lon;timestamp;pressure;altitude;pressure_sealevel;temperature;humidity
45793;BME280;31495;42.740;22.908;2023-06-14T00:00:39;92808.84;;;16.70;84.44
45793;BME280;31495;42.740;22.908;2023-06-14T00:01:42;92820.41;;;16.80;84.41
45793;BME280;31495;42.740;22.908;2023-06-14T00:02:44;92815.16;;;16.80;84.05
45793;BME280;31495;42.740;22.908;2023-06-14T00:03:43;92819.84;;;16.72;84.52
45793;BME280;31495;42.740;22.908;2023-06-14T00:04:43;92822.41;;;16.67;84.92
45793;BME280;31495;42.740;22.908;2023-06-14T00:05:43;92796.00;;;16.53;85.17
45793;BME280;31495;42.740;22.908;2023-06-14T00:06:44;92815.38;;;16.68;85.08
45793;BME280;31495;42.740;22.908;2023-06-14T00:07:44;92816.16;;;16.68;84.88
45793;BME280;31495;42.740;22.908;2023-06-14T00:08:43;92816.16;;;16.63;84.77
45793;BME280;31495;42.740;22.908;2023-06-14T00:09:43;92807.22;;;16.54;85.16
45793;BME280;31495;42.740;22.908;2023-06-14T00:10:42;92794.72;;;16.56;85.11
45793;BME280;31495;42.740;22.908;2023-06-14T00:11:42;92808.28;;;16.58;85.49
45793;BME280;31495;42.740;22.908;2023-06-14T00:12:41;92811.44;;;16.60;85.62
45793;BME280;31495;42.740;22.908;2023-06-14T00:13:40;92808.81;;;16.60;85.56
45793;BME280;31495;42.740;22.908;2023-06-14T00:14:41;92790.22;;;16.46;85.34
45793;BME280;31495;42.740;22.908;2023-06-14T00:15:40;92816.13;;;16.58;85.46
45793;BME280;31495;42.740;22.908;2023-06-14T00:16:40;92793.09;;;16.45;85.45
45793;BME280;31495;42.740;22.908;2023-06-14T00:17:44;92806.94;;;16.50;85.22
45793;BME280;31495;42.740;22.908;2023-06-14T00:18:46;92811.41;;;16.55;85.19
45793;BME280;31495;42.740;22.908;2023-06-14T00:19:46;92814.78;;;16.56;85.27
45793;BME280;31495;42.740;22.908;2023-06-14T00:20:45;92810.88;;;16.48;85.22
45793;BME280;31495;42.740;22.908;2023-06-14T00:21:45;92803.28;;;16.46;85.50
45793;BME280;31495;42.740;22.908;2023-06-14T00:22:45;92808.75;;;16.45;85.46
45793;BME280;31495;42.740;22.908;2023-06-14T00:23:45;92795.63;;;16.34;85.69
45793;BME280;31495;42.740;22.908;2023-06-14T00:24:45;92808.75;;;16.45;86.01
45793;BME280;31495;42.740;22.908;2023-06-14T00:25:44;92811.38;;;16.50;85.92
45793;BME280;31495;42.740;22.908;2023-06-14T00:26:44;92809.28;;;16.52;85.95
45793;BME280;31495;42.740;22.908;2023-06-14T00:27:44;92808.28;;;16.58;85.72
45793;BME280;31495;42.740;22.908;2023-06-14T00:28:44;92808.03;;;16.60;85.46
45793;BME280;31495;42.740;22.908;2023-06-14T00:29:43;92803.84;;;16.59;85.30
45793;BME280;31495;42.740;22.908;2023-06-14T00:30:43;92795.47;;;16.57;85.33
45793;BME280;31495;42.740;22.908;2023-06-14T00:31:45;92803.06;;;16.58;84.99
45793;BME280;31495;42.740;22.908;2023-06-14T00:32:45;92803.56;;;16.55;85.55
45793;BME280;31495;42.740;22.908;2023-06-14T00:33:46;92794.91;;;16.49;85.73
45793;BME280;31495;42.740;22.908;2023-06-14T00:34:46;92801.97;;;16.49;85.58
45793;BME280;31495;42.740;22.908;2023-06-14T00:35:45;92788.63;;;16.45;85.79
45793;BME280;31495;42.740;22.908;2023-06-14T00:36:46;92799.94;;;16.56;85.43
45793;BME280;31495;42.740;22.908;2023-06-14T00:37:46;92800.47;;;16.58;85.72
45793;BME280;31495;42.740;22.908;2023-06-14T00:38:45;92800.97;;;16.60;85.38
45793;BME280;31495;42.740;22.908;2023-06-14T00:39:44;92805.16;;;16.61;85.77
45793;BME280;31495;42.740;22.908;2023-06-14T00:40:44;92791.53;;;16.49;85.73
45793;BME280;31495;42.740;22.908;2023-06-14T00:41:43;92793.91;;;16.56;86.05
45793;BME280;31495;42.740;22.908;2023-06-14T00:42:43;92803.34;;;16.67;85.99
45793;BME280;31495;42.740;22.908;2023-06-14T00:43:42;92803.63;;;16.70;85.94
45793;BME280;31495;42.740;22.908;2023-06-14T00:44:42;92799.97;;;16.66;85.74
45793;BME280;31495;42.740;22.908;2023-06-14T00:45:41;92809.91;;;16.69;85.87
45793;BME280;31495;42.740;22.908;2023-06-14T00:46:41;92798.13;;;16.67;86.13
45793;BME280;31495;42.740;22.908;2023-06-14T00:47:41;92802.06;;;16.69;86.15
45793;BME280;31495;42.740;22.908;2023-06-14T00:48:42;92801.53;;;16.67;86.08
45793;BME280;31495;42.740;22.908;2023-06-14T00:49:42;92795.00;;;16.65;85.91
45793;BME280;31495;42.740;22.908;2023-06-14T00:50:43;92792.66;;;16.68;85.21
45793;BME280;31495;42.740;22.908;2023-06-14T00:51:45;92800.50;;;16.68;85.30
45793;BME280;31495;42.740;22.908;2023-06-14T00:52:45;92800.75;;;16.67;84.77
45793;BME280;31495;42.740;22.908;2023-06-14T00:53:45;92797.88;;;16.68;84.27
45793;BME280;31495;42.740;22.908;2023-06-14T00:54:46;92796.53;;;16.61;83.93
45793;BME280;31495;42.740;22.908;2023-06-14T00:55:46;92791.81;;;16.58;83.62
45793;BME280;31495;42.740;22.908;2023-06-14T00:56:46;92787.06;;;16.49;83.87
45793;BME280;31495;42.740;22.908;2023-06-14T00:57:46;92791.53;;;16.54;83.68
45793;BME280;31495;42.740;22.908;2023-06-14T00:58:47;92802.22;;;16.47;83.78
45793;BME280;31495;42.740;22.908;2023-06-14T00:59:49;92793.34;;;16.48;83.62
45793;BME280;31495;42.740;22.908;2023-06-14T01:00:49;92794.09;;;16.39;83.73
45793;BME280;31495;42.740;22.908;2023-06-14T01:01:48;92796.19;;;16.37;84.34
45793;BME280;31495;42.740;22.908;2023-06-14T01:02:48;92790.13;;;16.31;84.71
45793;BME280;31495;42.740;22.908;2023-06-14T01:03:48;92786.22;;;16.28;84.75
45793;BME280;31495;42.740;22.908;2023-06-14T01:04:49;92798.25;;;16.40;84.75
45793;BME280;31495;42.740;22.908;2023-06-14T01:06:00;92795.94;;;16.38;84.98
45793;BME280;31495;42.740;22.908;2023-06-14T01:07:33;92794.34;;;16.37;84.67
45793;BME280;31495;42.740;22.908;2023-06-14T01:08:51;92798.25;;;16.40;84.81
45793;BME280;31495;42.740;22.908;2023-06-14T01:11:12;92787.75;;;16.24;85.13
45793;BME280;31495;42.740;22.908;2023-06-14T01:12:50;92782.00;;;16.22;85.32
45793;BME280;31495;42.740;22.908;2023-06-14T01:13:47;92776.66;;;16.07;85.85
45793;BME280;31495;42.740;22.908;2023-06-14T01:14:48;92779.59;;;16.10;86.23
45793;BME280;31495;42.740;22.908;2023-06-14T01:15:48;92789.78;;;16.12;86.67
45793;BME280;31495;42.740;22.908;2023-06-14T01:16:50;92782.97;;;16.11;86.30
45793;BME280;31495;42.740;22.908;2023-06-14T01:17:53;92785.59;;;16.11;87.01
45793;BME280;31495;42.740;22.908;2023-06-14T01:18:53;92787.94;;;16.12;87.06
45793;BME280;31495;42.740;22.908;2023-06-14T01:19:55;92785.34;;;16.12;87.17
45793;BME280;31495;42.740;22.908;2023-06-14T01:20:57;92779.88;;;16.14;86.87
45793;BME280;31495;42.740;22.908;2023-06-14T01:21:57;92786.63;;;16.15;86.61
45793;BME280;31495;42.740;22.908;2023-06-14T01:22:56;92793.97;;;16.18;86.47
45793;BME280;31495;42.740;22.908;2023-06-14T01:23:56;92792.94;;;16.19;86.30
45793;BME280;31495;42.740;22.908;2023-06-14T01:24:55;92780.38;;;16.11;86.54
45793;BME280;31495;42.740;22.908;2023-06-14T01:25:55;92781.97;;;16.17;86.84
45793;BME280;31495;42.740;22.908;2023-06-14T01:26:55;92782.50;;;16.19;86.10
45793;BME280;31495;42.740;22.908;2023-06-14T01:28:02;92779.38;;;16.22;85.92
45793;BME280;31495;42.740;22.908;2023-06-14T01:29:02;92784.88;;;16.26;85.94
45793;BME280;31495;42.740;22.908;2023-06-14T01:30:02;92776.78;;;16.22;86.21
45793;BME280;31495;42.740;22.908;2023-06-14T01:31:02;92775.19;;;16.21;86.01
45793;BME280;31495;42.740;22.908;2023-06-14T01:32:04;92782.28;;;16.26;86.32
45793;BME280;31495;42.740;22.908;2023-06-14T01:33:04;92784.63;;;16.27;86.17
45793;BME280;31495;42.740;22.908;2023-06-14T01:34:04;92785.66;;;16.26;86.13
45793;BME280;31495;42.740;22.908;2023-06-14T01:35:04;92787.50;;;16.26;86.46
45793;BME280;31495;42.740;22.908;2023-06-14T01:36:05;92785.97;;;16.30;85.96
45793;BME280;31495;42.740;22.908;2023-06-14T01:37:06;92784.13;;;16.30;85.68
45793;BME280;31495;42.740;22.908;2023-06-14T01:38:06;92776.81;;;16.27;85.73
45793;BME280;31495;42.740;22.908;2023-06-14T01:39:07;92764.47;;;16.17;86.00
45793;BME280;31495;42.740;22.908;2023-06-14T01:40:08;92782.03;;;16.32;86.00
45793;BME280;31495;42.740;22.908;2023-06-14T01:41:09;92749.28;;;16.09;85.74
45793;BME280;31495;42.740;22.908;2023-06-14T01:42:10;92780.50;;;16.37;85.77
45793;BME280;31495;42.740;22.908;2023-06-14T01:43:15;92763.16;;;16.15;85.46
45793;BME280;31495;42.740;22.908;2023-06-14T01:44:16;92770.47;;;16.18;85.41
45793;BME280;31495;42.740;22.908;2023-06-14T01:45:17;92774.41;;;16.15;85.52
45793;BME280;31495;42.740;22.908;2023-06-14T01:46:17;92784.84;;;16.21;85.67
45793;BME280;31495;42.740;22.908;2023-06-14T01:47:18;92793.47;;;16.21;86.10
45793;BME280;31495;42.740;22.908;2023-06-14T01:48:19;92780.88;;;16.13;85.75
45793;BME280;31495;42.740;22.908;2023-06-14T01:49:20;92791.91;;;16.20;85.99
45793;BME280;31495;42.740;22.908;2023-06-14T01:50:21;92794.22;;;16.16;86.30
45793;BME280;31495;42.740;22.908;2023-06-14T01:51:20;92781.63;;;16.08;86.47
45793;BME280;31495;42.740;22.908;2023-06-14T01:52:20;92801.28;;;16.21;86.18
45793;BME280;31495;42.740;22.908;2023-06-14T01:53:21;92787.47;;;16.21;85.69
45793;BME280;31495;42.740;22.908;2023-06-14T01:54:21;92769.38;;;16.04;86.37
45793;BME280;31495;42.740;22.908;2023-06-14T01:55:21;92781.38;;;16.10;86.14
45793;BME280;31495;42.740;22.908;2023-06-14T01:56:21;92798.41;;;16.17;86.53
45793;BME280;31495;42.740;22.908;2023-06-14T01:57:22;92801.81;;;16.23;86.55
45793;BME280;31495;42.740;22.908;2023-06-14T01:58:21;92795.31;;;16.26;86.04
45793;BME280;31495;42.740;22.908;2023-06-14T01:59:21;92789.00;;;16.16;85.75
45793;BME280;31495;42.740;22.908;2023-06-14T02:00:20;92803.94;;;16.26;85.93
45793;BME280;31495;42.740;22.908;2023-06-14T02:01:21;92803.16;;;16.26;85.80
45793;BME280;31495;42.740;22.908;2023-06-14T02:02:21;92807.59;;;16.25;85.76
45793;BME280;31495;42.740;22.908;2023-06-14T02:03:21;92798.41;;;16.17;85.64
45793;BME280;31495;42.740;22.908;2023-06-14T02:04:20;92804.97;;;16.20;85.42
45793;BME280;31495;42.740;22.908;2023-06-14T02:05:19;92811.50;;;16.23;85.71
45793;BME280;31495;42.740;22.908;2023-06-14T02:06:19;92807.00;;;16.18;85.61
45793;BME280;31495;42.740;22.908;2023-06-14T02:07:18;92811.19;;;16.14;85.68
45793;BME280;31495;42.740;22.908;2023-06-14T02:08:17;92818.50;;;16.17;85.46
45793;BME280;31495;42.740;22.908;2023-06-14T02:09:17;92819.28;;;16.17;85.26
45793;BME280;31495;42.740;22.908;2023-06-14T02:10:16;92819.28;;;16.17;85.75
45793;BME280;31495;42.740;22.908;2023-06-14T02:11:16;92817.19;;;16.14;85.41
45793;BME280;31495;42.740;22.908;2023-06-14T02:12:16;92821.63;;;16.14;85.67
45793;BME280;31495;42.740;22.908;2023-06-14T02:13:15;92819.03;;;16.19;85.84
45793;BME280;31495;42.740;22.908;2023-06-14T02:14:15;92828.19;;;16.22;85.30
45793;BME280;31495;42.740;22.908;2023-06-14T02:15:16;92824.78;;;16.21;85.21
45793;BME280;31495;42.740;22.908;2023-06-14T02:16:19;92827.91;;;16.18;85.47
45793;BME280;31495;42.740;22.908;2023-06-14T02:17:18;92817.19;;;16.14;85.53
45793;BME280;31495;42.740;22.908;2023-06-14T02:18:18;92822.16;;;16.16;85.69
45793;BME280;31495;42.740;22.908;2023-06-14T02:19:18;92820.91;;;16.24;85.68
45793;BME280;31495;42.740;22.908;2023-06-14T02:20:18;92809.09;;;16.16;85.55
45793;BME280;31495;42.740;22.908;2023-06-14T02:21:17;92815.94;;;16.22;85.46
45793;BME280;31495;42.740;22.908;2023-06-14T02:22:17;92819.81;;;16.20;85.74
45793;BME280;31495;42.740;22.908;2023-06-14T02:23:17;92812.75;;;16.15;85.56
45793;BME280;31495;42.740;22.908;2023-06-14T02:24:16;92821.41;;;16.21;85.66
45793;BME280;31495;42.740;22.908;2023-06-14T02:25:16;92810.44;;;16.19;85.67
45793;BME280;31495;42.740;22.908;2023-06-14T02:26:15;92817.72;;;16.16;85.69
45793;BME280;31495;42.740;22.908;2023-06-14T02:27:14;92810.09;;;16.10;86.04
45793;BME280;31495;42.740;22.908;2023-06-14T02:28:14;92813.50;;;16.10;86.04
45793;BME280;31495;42.740;22.908;2023-06-14T02:29:13;92810.66;;;16.12;85.82
45793;BME280;31495;42.740;22.908;2023-06-14T02:30:14;92810.59;;;16.07;86.15
45793;BME280;31495;42.740;22.908;2023-06-14T02:31:14;92804.84;;;16.05;86.32
45793;BME280;31495;42.740;22.908;2023-06-14T02:32:15;92810.56;;;16.02;86.74
45793;BME280;31495;42.740;22.908;2023-06-14T02:33:15;92807.44;;;15.99;86.65
45793;BME280;31495;42.740;22.908;2023-06-14T02:34:15;92811.63;;;16.01;86.77
45793;BME280;31495;42.740;22.908;2023-06-14T02:35:16;92766.28;;;15.74;86.71
45793;BME280;31495;42.740;22.908;2023-06-14T02:36:16;92801.66;;;15.92;86.56
45793;BME280;31495;42.740;22.908;2023-06-14T02:37:16;92810.75;;;15.90;86.49
45793;BME280;31495;42.740;22.908;2023-06-14T02:38:16;92797.97;;;15.88;86.56
45793;BME280;31495;42.740;22.908;2023-06-14T02:39:15;92806.28;;;15.85;87.00
45793;BME280;31495;42.740;22.908;2023-06-14T02:40:15;92810.19;;;15.83;86.72
45793;BME280;31495;42.740;22.908;2023-06-14T02:41:15;92794.63;;;15.66;87.20
45793;BME280;31495;42.740;22.908;2023-06-14T02:42:14;92800.94;;;15.70;86.99
45793;BME280;31495;42.740;22.908;2023-06-14T02:43:14;92807.66;;;15.66;87.34
45793;BME280;31495;42.740;22.908;2023-06-14T02:44:14;92799.59;;;15.67;87.37
45793;BME280;31495;42.740;22.908;2023-06-14T02:45:14;92814.25;;;15.73;87.21
45793;BME280;31495;42.740;22.908;2023-06-14T02:46:14;92812.91;;;15.71;87.29
45793;BME280;31495;42.740;22.908;2023-06-14T02:47:14;92818.69;;;15.73;87.34
45793;BME280;31495;42.740;22.908;2023-06-14T02:48:13;92818.69;;;15.73;87.56
45793;BME280;31495;42.740;22.908;2023-06-14T02:49:13;92806.66;;;15.72;87.43
45793;BME280;31495;42.740;22.908;2023-06-14T02:50:12;92813.53;;;15.78;87.25
45793;BME280;31495;42.740;22.908;2023-06-14T02:51:11;92815.66;;;15.81;87.29
45793;BME280;31495;42.740;22.908;2023-06-14T02:52:12;92814.91;;;15.86;87.21
45793;BME280;31495;42.740;22.908;2023-06-14T02:53:12;92818.81;;;15.88;87.01
45793;BME280;31495;42.740;22.908;2023-06-14T02:54:11;92804.97;;;15.83;86.90
45793;BME280;31495;42.740;22.908;2023-06-14T02:55:11;92811.78;;;15.89;86.89
45793;BME280;31495;42.740;22.908;2023-06-14T02:56:10;92813.34;;;15.90;86.81
45793;BME280;31495;42.740;22.908;2023-06-14T02:57:11;92813.16;;;15.96;86.98
45793;BME280;31495;42.740;22.908;2023-06-14T02:58:10;92793.22;;;15.85;86.91
45793;BME280;31495;42.740;22.908;2023-06-14T02:59:10;92813.16;;;15.96;86.72
45793;BME280;31495;42.740;22.908;2023-06-14T03:00:09;92798.22;;;15.92;86.64
45793;BME280;31495;42.740;22.908;2023-06-14T03:01:12;92813.72;;;16.04;86.98
45793;BME280;31495;42.740;22.908;2023-06-14T03:02:13;92816.59;;;16.02;86.84
45793;BME280;31495;42.740;22.908;2023-06-14T03:03:13;92819.72;;;16.04;87.01
45793;BME280;31495;42.740;22.908;2023-06-14T03:04:15;92817.91;;;16.05;87.05
45793;BME280;31495;42.740;22.908;2023-06-14T03:05:15;92822.88;;;16.06;86.59
45793;BME280;31495;42.740;22.908;2023-06-14T03:06:15;92817.66;;;16.06;86.61
45793;BME280;31495;42.740;22.908;2023-06-14T03:07:16;92821.84;;;16.07;86.48
45793;BME280;31495;42.740;22.908;2023-06-14T03:08:19;92821.59;;;16.09;86.58
45793;BME280;31495;42.740;22.908;2023-06-14T03:09:18;92827.09;;;16.12;86.08
45793;BME280;31495;42.740;22.908;2023-06-14T03:10:18;92803.22;;;15.98;86.09
45793;BME280;31495;42.740;22.908;2023-06-14T03:11:18;92811.63;;;16.01;86.74
45793;BME280;31495;42.740;22.908;2023-06-14T03:12:20;92824.69;;;16.06;86.66
45793;BME280;31495;42.740;22.908;2023-06-14T03:13:20;92829.16;;;16.10;86.58
45793;BME280;31495;42.740;22.908;2023-06-14T03:14:22;92827.88;;;16.13;86.79
45793;BME280;31495;42.740;22.908;2023-06-14T03:15:22;92829.97;;;16.16;86.74
45793;BME280;31495;42.740;22.908;2023-06-14T03:16:24;92819.00;;;16.14;86.30
45793;BME280;31495;42.740;22.908;2023-06-14T03:17:23;92825.84;;;16.20;86.53
45793;BME280;31495;42.740;22.908;2023-06-14T03:18:23;92827.16;;;16.23;86.52
45793;BME280;31495;42.740;22.908;2023-06-14T03:19:23;92832.66;;;16.26;86.41
45793;BME280;31495;42.740;22.908;2023-06-14T03:20:23;92825.06;;;16.25;86.36
45793;BME280;31495;42.740;22.908;2023-06-14T03:21:23;92815.66;;;16.19;85.97
45793;BME280;31495;42.740;22.908;2023-06-14T03:22:22;92834.72;;;16.24;85.79
45793;BME280;31495;42.740;22.908;2023-06-14T03:23:24;92826.09;;;16.19;85.78
45793;BME280;31495;42.740;22.908;2023-06-14T03:24:27;92831.31;;;16.19;85.59
45793;BME280;31495;42.740;22.908;2023-06-14T03:25:27;92836.81;;;16.22;85.86
45793;BME280;31495;42.740;22.908;2023-06-14T03:26:28;92836.81;;;16.22;85.62
45793;BME280;31495;42.740;22.908;2023-06-14T03:27:30;92828.69;;;16.13;85.47
45793;BME280;31495;42.740;22.908;2023-06-14T03:28:29;92838.66;;;16.22;85.46
45793;BME280;31495;42.740;22.908;2023-06-14T03:29:29;92831.84;;;16.21;84.93
45793;BME280;31495;42.740;22.908;2023-06-14T03:30:29;92833.13;;;16.18;85.12
45793;BME280;31495;42.740;22.908;2023-06-14T03:31:29;92832.59;;;16.16;84.99
45793;BME280;31495;42.740;22.908;2023-06-14T03:32:31;92840.97;;;16.23;85.48
45793;BME280;31495;42.740;22.908;2023-06-14T03:33:32;92828.94;;;16.17;85.78
45793;BME280;31495;42.740;22.908;2023-06-14T03:34:32;92847.25;;;16.22;86.01
45793;BME280;31495;42.740;22.908;2023-06-14T03:35:31;92826.56;;;16.10;86.18
45793;BME280;31495;42.740;22.908;2023-06-14T03:36:31;92845.16;;;16.24;86.35
45793;BME280;31495;42.740;22.908;2023-06-14T03:37:32;92836.81;;;16.22;86.31
45793;BME280;31495;42.740;22.908;2023-06-14T03:38:32;92821.88;;;16.12;86.34
45793;BME280;31495;42.740;22.908;2023-06-14T03:39:32;92842.81;;;16.23;86.11
45793;BME280;31495;42.740;22.908;2023-06-14T03:40:32;92840.50;;;16.31;85.75
45793;BME280;31495;42.740;22.908;2023-06-14T03:41:31;92822.69;;;16.18;85.55
45793;BME280;31495;42.740;22.908;2023-06-14T03:42:31;92838.66;;;16.27;85.78
45793;BME280;31495;42.740;22.908;2023-06-14T03:43:30;92843.66;;;16.33;85.30
45793;BME280;31495;42.740;22.908;2023-06-14T03:44:30;92848.91;;;16.39;85.50
45793;BME280;31495;42.740;22.908;2023-06-14T03:45:29;92836.06;;;16.27;85.89
45793;BME280;31495;42.740;22.908;2023-06-14T03:46:29;92848.41;;;16.37;85.86
45793;BME280;31495;42.740;22.908;2023-06-14T03:47:29;92856.78;;;16.44;85.23
45793;BME280;31495;42.740;22.908;2023-06-14T03:48:29;92851.28;;;16.40;84.90
45793;BME280;31495;42.740;22.908;2023-06-14T03:49:28;92859.66;;;16.42;84.59
45793;BME280;31495;42.740;22.908;2023-06-14T03:50:28;92855.19;;;16.43;84.59
45793;BME280;31495;42.740;22.908;2023-06-14T03:51:27;92850.47;;;16.40;84.60
45793;BME280;31495;42.740;22.908;2023-06-14T03:52:27;92842.13;;;16.43;84.28
45793;BME280;31495;42.740;22.908;2023-06-14T03:53:26;92844.25;;;16.46;84.36
45793;BME280;31495;42.740;22.908;2023-06-14T03:54:28;92855.06;;;16.60;84.28
45793;BME280;31495;42.740;22.908;2023-06-14T03:55:28;92857.66;;;16.60;84.48
45793;BME280;31495;42.740;22.908;2023-06-14T03:56:30;92852.19;;;16.61;84.58
45793;BME280;31495;42.740;22.908;2023-06-14T03:57:29;92854.28;;;16.64;84.97
45793;BME280;31495;42.740;22.908;2023-06-14T03:58:29;92854.28;;;16.64;84.72
45793;BME280;31495;42.740;22.908;2023-06-14T03:59:29;92843.03;;;16.59;84.89
45793;BME280;31495;42.740;22.908;2023-06-14T04:00:28;92850.13;;;16.73;84.62
45793;BME280;31495;42.740;22.908;2023-06-14T04:01:28;92854.06;;;16.71;84.65
45793;BME280;31495;42.740;22.908;2023-06-14T04:02:28;92853.28;;;16.76;84.44
45793;BME280;31495;42.740;22.908;2023-06-14T04:03:28;92845.66;;;16.69;84.47
45793;BME280;31495;42.740;22.908;2023-06-14T04:04:29;92846.25;;;16.76;84.48
45793;BME280;31495;42.740;22.908;2023-06-14T04:05:30;92841.78;;;16.77;83.95
45793;BME280;31495;42.740;22.908;2023-06-14T04:06:30;92848.09;;;16.81;84.22
45793;BME280;31495;42.740;22.908;2023-06-14T04:07:32;92850.97;;;16.79;84.13
45793;BME280;31495;42.740;22.908;2023-06-14T04:08:39;92846.78;;;16.83;84.01
45793;BME280;31495;42.740;22.908;2023-06-14T04:09:39;92848.16;;;16.86;83.90
45793;BME280;31495;42.740;22.908;2023-06-14T04:10:39;92832.94;;;16.78;83.98
45793;BME280;31495;42.740;22.908;2023-06-14T04:11:38;92846.59;;;16.90;83.88
45793;BME280;31495;42.740;22.908;2023-06-14T04:12:38;92839.25;;;16.92;83.71
45793;BME280;31495;42.740;22.908;2023-06-14T04:13:37;92844.25;;;16.94;83.38
45793;BME280;31495;42.740;22.908;2023-06-14T04:14:41;92845.56;;;16.91;82.82
45793;BME280;31495;42.740;22.908;2023-06-14T04:15:41;92842.44;;;16.94;82.82
45793;BME280;31495;42.740;22.908;2023-06-14T04:16:46;92833.84;;;17.04;81.91
45793;BME280;31495;42.740;22.908;2023-06-14T04:17:46;92821.78;;;16.87;81.87
45793;BME280;31495;42.740;22.908;2023-06-14T04:18:45;92832.00;;;16.99;81.97
45793;BME280;31495;42.740;22.908;2023-06-14T04:19:46;92842.72;;;17.03;82.29
45793;BME280;31495;42.740;22.908;2023-06-14T04:20:47;92837.22;;;17.04;82.37
45793;BME280;31495;42.740;22.908;2023-06-14T04:21:47;92839.06;;;17.04;81.97
45793;BME280;31495;42.740;22.908;2023-06-14T04:22:47;92845.09;;;17.15;81.97
45793;BME280;31495;42.740;22.908;2023-06-14T04:23:48;92841.72;;;17.14;81.68
45793;BME280;31495;42.740;22.908;2023-06-14T04:24:47;92840.13;;;17.08;82.04
45793;BME280;31495;42.740;22.908;2023-06-14T04:25:49;92842.22;;;17.11;82.25
45793;BME280;31495;42.740;22.908;2023-06-14T04:26:49;92849.00;;;17.07;82.79
45793;BME280;31495;42.740;22.908;2023-06-14T04:27:48;92835.63;;;16.93;83.07
45793;BME280;31495;42.740;22.908;2023-06-14T04:28:49;92855.03;;;17.07;82.88
45793;BME280;31495;42.740;22.908;2023-06-14T04:29:49;92854.78;;;17.14;82.15
45793;BME280;31495;42.740;22.908;2023-06-14T04:30:55;92845.88;;;17.10;82.27
45793;BME280;31495;42.740;22.908;2023-06-14T04:31:55;92853.19;;;17.08;82.30
45793;BME280;31495;42.740;22.908;2023-06-14T04:32:58;92859.75;;;17.16;81.91
45793;BME280;31495;42.740;22.908;2023-06-14T04:33:58;92842.22;;;17.16;81.46
45793;BME280;31495;42.740;22.908;2023-06-14T04:34:59;92856.38;;;17.25;81.10
45793;BME280;31495;42.740;22.908;2023-06-14T04:36:01;92848.03;;;17.23;81.27
45793;BME280;31495;42.740;22.908;2023-06-14T04:37:01;92853.78;;;17.31;80.89
45793;BME280;31495;42.740;22.908;2023-06-14T04:38:02;92854.03;;;17.34;80.68
45793;BME280;31495;42.740;22.908;2023-06-14T04:39:03;92859.03;;;17.41;80.31
45793;BME280;31495;42.740;22.908;2023-06-14T04:40:03;92860.34;;;17.43;79.52
45793;BME280;31495;42.740;22.908;2023-06-14T04:41:06;92861.13;;;17.49;79.37
45793;BME280;31495;42.740;22.908;2023-06-14T04:42:05;92866.63;;;17.48;79.46
45793;BME280;31495;42.740;22.908;2023-06-14T04:43:06;92860.09;;;17.45;79.05
45793;BME280;31495;42.740;22.908;2023-06-14T04:44:06;92870.56;;;17.60;78.76
45793;BME280;31495;42.740;22.908;2023-06-14T04:45:07;92867.44;;;17.58;78.84
45793;BME280;31495;42.740;22.908;2023-06-14T04:46:07;92869.81;;;17.60;79.01
45793;BME280;31495;42.740;22.908;2023-06-14T04:47:14;92853.53;;;17.48;79.31
45793;BME280;31495;42.740;22.908;2023-06-14T04:48:15;92875.81;;;17.55;79.13
45793;BME280;31495;42.740;22.908;2023-06-14T04:49:17;92873.69;;;17.52;79.40
45793;BME280;31495;42.740;22.908;2023-06-14T04:50:17;92867.69;;;17.52;79.04
45793;BME280;31495;42.740;22.908;2023-06-14T04:51:17;92875.03;;;17.60;78.84
45793;BME280;31495;42.740;22.908;2023-06-14T04:52:20;92859.84;;;17.62;78.72
45793;BME280;31495;42.740;22.908;2023-06-14T04:53:20;92869.81;;;17.70;78.90
45793;BME280;31495;42.740;22.908;2023-06-14T04:54:22;92853.03;;;17.61;78.72
45793;BME280;31495;42.740;22.908;2023-06-14T04:55:22;92871.13;;;17.78;78.49
45793;BME280;31495;42.740;22.908;2023-06-14T04:56:23;92865.91;;;17.68;78.36
45793;BME280;31495;42.740;22.908;2023-06-14T04:57:22;92873.50;;;17.74;78.29
45793;BME280;31495;42.740;22.908;2023-06-14T04:58:21;92858.31;;;17.76;78.37
45793;BME280;31495;42.740;22.908;2023-06-14T04:59:21;92869.03;;;17.80;78.59
45793;BME280;31495;42.740;22.908;2023-06-14T05:00:22;92866.41;;;17.80;79.80
45793;BME280;31495;42.740;22.908;2023-06-14T05:01:22;92869.56;;;17.82;80.31
45793;BME280;31495;42.740;22.908;2023-06-14T05:02:23;92871.91;;;17.78;80.78
45793;BME280;31495;42.740;22.908;2023-06-14T05:03:23;92869.28;;;17.73;80.92
45793;BME280;31495;42.740;22.908;2023-06-14T05:04:23;92862.47;;;17.72;80.48
45793;BME280;31495;42.740;22.908;2023-06-14T05:05:22;92873.75;;;17.83;80.21
45793;BME280;31495;42.740;22.908;2023-06-14T05:06:23;92880.84;;;17.88;80.86
45793;BME280;31495;42.740;22.908;2023-06-14T05:07:23;92877.69;;;17.86;80.62
45793;BME280;31495;42.740;22.908;2023-06-14T05:08:23;92877.94;;;17.84;80.25
45793;BME280;31495;42.740;22.908;2023-06-14T05:09:22;92885.00;;;17.83;80.29
45793;BME280;31495;42.740;22.908;2023-06-14T05:10:23;92867.19;;;17.75;80.44
45793;BME280;31495;42.740;22.908;2023-06-14T05:11:22;92881.59;;;17.78;80.28
45793;BME280;31495;42.740;22.908;2023-06-14T05:12:23;92883.69;;;17.76;80.25
45793;BME280;31495;42.740;22.908;2023-06-14T05:13:22;92883.16;;;17.74;79.66
45793;BME280;31495;42.740;22.908;2023-06-14T05:14:22;92875.03;;;17.65;79.72
45793;BME280;31495;42.740;22.908;2023-06-14T05:15:22;92886.28;;;17.66;80.00
45793;BME280;31495;42.740;22.908;2023-06-14T05:16:24;92886.28;;;17.60;80.23
45793;BME280;31495;42.740;22.908;2023-06-14T05:17:26;92878.16;;;17.52;80.13
45793;BME280;31495;42.740;22.908;2023-06-14T05:18:27;92884.91;;;17.37;80.55